createdAt,value
2023-05-17T00:01:17.650Z,6.90
2023-05-17T00:03:50.988Z,6.58
2023-05-17T00:06:24.379Z,6.05
2023-05-17T00:08:57.219Z,6.55
2023-05-17T00:11:30.210Z,7.20
2023-05-17T00:14:03.759Z,7.72
2023-05-17T00:16:37.360Z,6.70
2023-05-17T00:19:10.479Z,6.67
2023-05-17T00:21:43.508Z,6.58
2023-05-17T00:24:16.462Z,6.62
2023-05-17T00:26:49.462Z,6.30
2023-05-17T00:29:22.533Z,6.73
2023-05-17T00:31:55.424Z,6.47
2023-05-17T00:34:28.448Z,6.28
2023-05-17T00:37:01.269Z,7.03
2023-05-17T00:39:34.317Z,7.17
2023-05-17T00:42:07.737Z,6.40
2023-05-17T00:44:41.145Z,6.72
2023-05-17T00:47:14.190Z,6.55
2023-05-17T00:49:47.115Z,6.30
2023-05-17T00:52:20.090Z,6.45
2023-05-17T00:54:54.065Z,6.53
2023-05-17T00:57:28.978Z,6.85
2023-05-17T01:00:02.326Z,6.62
2023-05-17T01:02:35.727Z,6.30
2023-05-17T01:05:09.504Z,6.95
2023-05-17T01:07:42.987Z,6.35
2023-05-17T01:10:16.171Z,6.53
2023-05-17T01:13:11.441Z,7.92
2023-05-17T01:15:48.184Z,7.67
2023-05-17T01:18:47.095Z,7.10
2023-05-17T01:22:01.863Z,6.28
2023-05-17T01:25:00.422Z,19.10
2023-05-17T01:27:34.308Z,8.95
2023-05-17T01:30:08.818Z,9.00
2023-05-17T01:32:43.622Z,6.55
2023-05-17T01:35:17.621Z,7.47
2023-05-17T01:37:51.202Z,11.88
2023-05-17T01:40:24.386Z,8.33
2023-05-17T01:43:12.369Z,7.20
2023-05-17T01:46:06.608Z,12.73
2023-05-17T01:48:44.205Z,8.73
2023-05-17T01:51:20.866Z,7.90
2023-05-17T01:54:00.999Z,7.15
2023-05-17T01:56:36.356Z,6.08
2023-05-17T01:59:09.857Z,7.37
2023-05-17T02:01:44.374Z,7.28
2023-05-17T02:04:17.419Z,7.67
2023-05-17T02:06:50.416Z,7.75
2023-05-17T02:09:23.640Z,8.60
2023-05-17T02:11:56.660Z,7.85
2023-05-17T02:14:30.366Z,7.37
2023-05-17T02:17:05.254Z,7.97
2023-05-17T02:19:38.223Z,8.08
2023-05-17T02:22:12.289Z,7.58
2023-05-17T02:24:45.016Z,7.25
2023-05-17T02:27:18.092Z,6.60
2023-05-17T02:29:50.890Z,7.95
2023-05-17T02:32:24.073Z,6.80
2023-05-17T02:34:57.854Z,7.87
2023-05-17T02:37:30.692Z,8.07
2023-05-17T02:40:04.505Z,7.80
2023-05-17T02:42:39.298Z,7.85
2023-05-17T02:45:12.781Z,7.33
2023-05-17T02:47:45.856Z,7.25
2023-05-17T02:50:19.041Z,8.05
2023-05-17T02:52:51.981Z,7.78
2023-05-17T02:55:25.048Z,7.20
2023-05-17T02:57:58.176Z,8.30
2023-05-17T03:00:31.354Z,7.45
2023-05-17T03:03:04.520Z,7.35
2023-05-17T03:05:37.573Z,7.30
2023-05-17T03:08:10.872Z,8.18
2023-05-17T03:10:43.679Z,7.60
2023-05-17T03:13:17.519Z,7.13
2023-05-17T03:15:50.887Z,7.40
2023-05-17T03:18:24.259Z,7.72
2023-05-17T03:20:59.883Z,7.80
2023-05-17T03:23:33.613Z,7.28
2023-05-17T03:26:08.002Z,7.10
2023-05-17T03:28:43.044Z,7.12
2023-05-17T03:31:15.886Z,7.20
2023-05-17T03:33:49.007Z,7.47
2023-05-17T03:36:22.734Z,7.60
2023-05-17T03:38:55.928Z,6.85
2023-05-17T03:41:29.178Z,7.87
2023-05-17T03:44:02.175Z,6.92
2023-05-17T03:46:36.101Z,7.55
2023-05-17T03:49:09.920Z,6.28
2023-05-17T03:51:43.790Z,6.42
2023-05-17T03:54:16.776Z,6.67
2023-05-17T03:59:23.568Z,6.58
2023-05-17T04:01:56.503Z,6.60
2023-05-17T04:04:29.415Z,6.83
2023-05-17T04:07:02.506Z,6.70
2023-05-17T04:09:35.393Z,6.33
2023-05-17T04:12:09.455Z,6.22
2023-05-17T04:17:16.784Z,7.53
2023-05-17T04:19:51.109Z,6.83
2023-05-17T04:22:25.889Z,6.10
2023-05-17T04:24:58.704Z,6.75
2023-05-17T04:27:32.351Z,7.00
2023-05-17T04:30:05.780Z,6.30
2023-05-17T04:32:38.859Z,7.90
2023-05-17T04:35:11.959Z,5.83
2023-05-17T04:37:46.979Z,7.35
2023-05-17T04:40:25.040Z,7.80
2023-05-17T04:42:58.166Z,9.93
2023-05-17T04:45:33.680Z,6.67
2023-05-17T04:48:07.326Z,6.58
2023-05-17T04:50:40.534Z,6.37
2023-05-17T04:53:13.722Z,5.70
2023-05-17T04:55:48.955Z,7.12
2023-05-17T04:58:22.176Z,6.55
2023-05-17T05:00:56.746Z,6.70
2023-05-17T05:03:29.871Z,6.75
2023-05-17T05:06:04.612Z,5.30
2023-05-17T05:08:38.015Z,5.40
2023-05-17T05:11:12.905Z,5.28
2023-05-17T05:13:46.596Z,5.15
2023-05-17T05:16:19.810Z,4.90
2023-05-17T05:18:54.242Z,4.90
2023-05-17T05:21:27.650Z,4.60
2023-05-17T05:24:00.948Z,4.70
2023-05-17T05:26:34.171Z,4.42
2023-05-17T05:29:08.041Z,5.62
2023-05-17T05:31:41.476Z,3.72
2023-05-17T05:34:14.662Z,3.52
2023-05-17T05:36:47.732Z,3.08
2023-05-17T05:39:20.827Z,3.22
2023-05-17T05:41:53.761Z,13.75
2023-05-17T05:44:26.842Z,4.85
2023-05-17T05:47:00.017Z,4.40
2023-05-17T05:49:33.071Z,5.35
2023-05-17T05:52:06.289Z,3.80
2023-05-17T05:54:39.554Z,3.47
2023-05-17T05:57:12.844Z,4.47
2023-05-17T05:59:46.027Z,2.40
2023-05-17T06:02:20.086Z,3.90
2023-05-17T06:04:52.931Z,3.65
2023-05-17T06:07:25.825Z,3.02
2023-05-17T06:09:58.907Z,2.92
2023-05-17T06:12:32.901Z,2.60
2023-05-17T06:15:06.577Z,2.75
2023-05-17T06:17:39.961Z,2.80
2023-05-17T06:20:13.525Z,3.00
2023-05-17T06:22:46.660Z,5.95
2023-05-17T06:25:19.690Z,4.50
2023-05-17T06:27:52.652Z,4.53
2023-05-17T06:30:27.652Z,3.12
2023-05-17T06:33:01.787Z,5.55
2023-05-17T06:35:47.532Z,4.50
2023-05-17T06:38:09.291Z,3.42
2023-05-17T06:40:42.380Z,4.00
2023-05-17T06:43:15.349Z,3.60
2023-05-17T06:45:48.211Z,2.87
2023-05-17T06:48:21.881Z,4.47
2023-05-17T06:50:54.953Z,4.08
2023-05-17T06:53:28.091Z,4.15
2023-05-17T06:56:01.118Z,3.58
2023-05-17T06:58:35.922Z,4.10
2023-05-17T07:01:09.158Z,3.70
2023-05-17T07:03:44.643Z,3.25
2023-05-17T07:06:17.776Z,3.37
2023-05-17T07:08:51.119Z,3.12
2023-05-17T07:11:24.007Z,3.22
2023-05-17T07:13:56.903Z,1.92
2023-05-17T07:16:29.992Z,2.60
2023-05-17T07:19:02.976Z,2.02
2023-05-17T07:21:37.077Z,2.17
2023-05-17T07:24:10.046Z,1.80
2023-05-17T07:26:44.175Z,1.90
2023-05-17T07:29:17.109Z,1.80
2023-05-17T07:31:51.866Z,2.20
2023-05-17T07:34:24.495Z,2.55
2023-05-17T07:36:59.710Z,2.83
2023-05-17T07:39:32.594Z,1.92
2023-05-17T07:42:05.919Z,1.92
2023-05-17T07:47:11.569Z,2.00
2023-05-17T07:49:44.615Z,2.37
2023-05-17T07:52:17.430Z,1.98
2023-05-17T07:54:50.899Z,2.17
2023-05-17T07:57:24.230Z,1.85
2023-05-17T07:59:56.924Z,2.22
2023-05-17T08:02:29.966Z,2.90
2023-05-17T08:05:02.954Z,2.08
2023-05-17T08:07:36.308Z,2.00
2023-05-17T08:10:09.989Z,2.30
2023-05-17T08:12:43.194Z,2.20
2023-05-17T08:15:16.072Z,2.40
2023-05-17T08:17:49.296Z,1.90
2023-05-17T08:20:23.009Z,2.50
2023-05-17T08:22:56.384Z,2.45
2023-05-17T08:25:29.394Z,2.60
2023-05-17T08:28:03.104Z,2.47
2023-05-17T08:30:36.481Z,3.30
2023-05-17T08:33:11.814Z,3.77
2023-05-17T08:35:44.644Z,3.50
2023-05-17T08:38:20.018Z,3.65
2023-05-17T08:41:00.162Z,3.60
2023-05-17T08:43:33.768Z,3.83
2023-05-17T08:46:06.968Z,2.83
2023-05-17T08:48:42.375Z,3.47
2023-05-17T08:51:15.400Z,2.95
2023-05-17T08:53:50.954Z,3.17
2023-05-17T08:56:25.624Z,2.90
2023-05-17T08:58:59.200Z,3.08
2023-05-17T09:01:33.276Z,2.42
2023-05-17T09:04:07.317Z,3.17
2023-05-17T09:06:40.166Z,2.75
2023-05-17T09:09:13.342Z,2.45
2023-05-17T09:11:47.338Z,2.60
2023-05-17T09:14:20.197Z,3.00
2023-05-17T09:16:58.654Z,3.33
2023-05-17T09:19:33.000Z,2.25
2023-05-17T09:24:37.951Z,3.17
2023-05-17T09:27:10.904Z,2.90
2023-05-17T09:29:45.272Z,2.67
2023-05-17T09:32:21.917Z,2.60
2023-05-17T09:34:56.316Z,2.77
2023-05-17T09:37:29.115Z,2.80
2023-05-17T09:40:04.446Z,2.27
2023-05-17T09:42:39.440Z,2.37
2023-05-17T09:45:14.056Z,2.67
2023-05-17T09:47:48.423Z,2.60
2023-05-17T09:52:55.783Z,2.77
2023-05-17T09:55:30.011Z,2.58
2023-05-17T09:58:06.546Z,2.70
2023-05-17T10:00:39.847Z,2.37
2023-05-17T10:03:14.185Z,2.80
2023-05-17T10:05:48.229Z,2.67
2023-05-17T10:08:26.262Z,2.20
2023-05-17T10:11:11.840Z,2.47
2023-05-17T10:13:51.945Z,3.10
2023-05-17T10:16:25.281Z,2.95
2023-05-17T10:18:58.199Z,2.50
2023-05-17T10:21:34.696Z,2.37
2023-05-17T10:24:08.741Z,2.27
2023-05-17T10:29:14.087Z,2.55
2023-05-17T10:31:47.827Z,2.65
2023-05-17T10:34:22.056Z,2.15
2023-05-17T10:36:55.790Z,2.00
2023-05-17T10:39:29.286Z,2.20
2023-05-17T10:42:14.315Z,2.30
2023-05-17T10:44:39.262Z,2.85
2023-05-17T10:47:13.002Z,2.65
2023-05-17T10:49:48.675Z,2.33
2023-05-17T10:52:24.970Z,2.45
2023-05-17T10:54:58.726Z,2.55
2023-05-17T11:00:13.278Z,2.10
2023-05-17T11:05:28.793Z,2.27
2023-05-17T11:08:20.928Z,1.60
2023-05-17T11:11:14.400Z,1.85
2023-05-17T11:13:53.905Z,1.77
2023-05-17T11:16:39.818Z,2.60
2023-05-17T11:19:13.940Z,2.20
2023-05-17T11:21:50.373Z,2.10
2023-05-17T11:24:28.950Z,2.45
2023-05-17T11:27:02.506Z,2.37
2023-05-17T11:29:35.808Z,2.03
2023-05-17T11:32:11.601Z,2.25
2023-05-17T11:34:44.485Z,2.90
2023-05-17T11:37:21.160Z,2.67
2023-05-17T11:40:10.481Z,2.70
2023-05-17T11:42:45.511Z,2.47
2023-05-17T11:45:18.518Z,2.60
2023-05-17T11:47:52.997Z,2.95
2023-05-17T11:50:26.193Z,2.70
2023-05-17T11:53:00.624Z,2.67
2023-05-17T11:55:34.812Z,4.08
2023-05-17T12:00:45.496Z,2.95
2023-05-17T12:03:25.051Z,2.98
2023-05-17T12:06:16.414Z,2.90
2023-05-17T12:08:50.253Z,2.77
2023-05-17T12:11:24.131Z,3.20
2023-05-17T12:13:57.325Z,4.55
2023-05-17T12:16:32.812Z,5.15
2023-05-17T12:19:06.050Z,6.25
2023-05-17T12:21:41.280Z,5.17
2023-05-17T12:24:14.428Z,3.92
2023-05-17T12:26:50.427Z,3.65
2023-05-17T12:29:25.183Z,3.52
2023-05-17T12:31:58.445Z,3.47
2023-05-17T12:34:32.367Z,4.28
2023-05-17T12:37:07.332Z,5.75
2023-05-17T12:39:41.144Z,5.58
2023-05-17T12:42:14.288Z,7.47
2023-05-17T12:44:47.707Z,7.45
2023-05-17T12:47:20.536Z,15.08
2023-05-17T12:49:59.341Z,12.10
2023-05-17T12:52:38.172Z,11.30
2023-05-17T12:55:14.832Z,10.50
2023-05-17T12:57:57.685Z,7.45
2023-05-17T13:00:31.158Z,7.05
2023-05-17T13:03:06.058Z,9.73
2023-05-17T13:05:41.638Z,7.62
2023-05-17T13:08:24.825Z,6.12
2023-05-17T13:11:12.104Z,6.28
2023-05-17T13:13:44.875Z,5.33
2023-05-17T13:16:17.793Z,6.22
2023-05-17T13:18:53.521Z,5.17
2023-05-17T13:21:27.184Z,4.83
2023-05-17T13:23:59.906Z,5.97
2023-05-17T13:26:33.164Z,6.90
2023-05-17T13:29:06.522Z,7.42
2023-05-17T13:31:39.491Z,9.45
2023-05-17T13:34:12.465Z,9.38
2023-05-17T13:36:45.697Z,9.97
2023-05-17T13:39:19.890Z,7.85
2023-05-17T13:41:53.250Z,7.45
2023-05-17T13:44:26.209Z,8.38
2023-05-17T13:46:59.056Z,7.87
2023-05-17T13:49:32.251Z,20.63
2023-05-17T13:52:06.947Z,8.40
2023-05-17T13:54:40.653Z,5.12
2023-05-17T13:57:13.872Z,4.72
2023-05-17T13:59:47.266Z,5.37
2023-05-17T14:02:20.407Z,5.65
2023-05-17T14:04:53.248Z,4.97
2023-05-17T14:07:26.652Z,6.42
2023-05-17T14:09:59.661Z,7.80
2023-05-17T14:12:32.697Z,5.53
2023-05-17T14:15:06.470Z,7.37
2023-05-17T14:17:39.548Z,7.85
2023-05-17T14:20:14.310Z,5.12
2023-05-17T14:22:47.411Z,4.75
2023-05-17T14:25:20.563Z,10.07
2023-05-17T14:27:54.618Z,5.63
2023-05-17T14:32:59.582Z,10.35
2023-05-17T14:35:32.687Z,4.63
2023-05-17T14:38:05.865Z,5.40
2023-05-17T14:40:39.362Z,5.83
2023-05-17T14:43:12.334Z,5.05
2023-05-17T14:45:45.519Z,6.90
2023-05-17T14:48:18.581Z,4.22
2023-05-17T14:50:53.166Z,4.47
2023-05-17T14:53:29.639Z,4.30
2023-05-17T14:56:02.560Z,4.95
2023-05-17T14:58:36.048Z,4.30
2023-05-17T15:01:09.531Z,4.08
2023-05-17T15:03:42.530Z,5.05
2023-05-17T15:06:15.591Z,4.97
2023-05-17T15:08:48.886Z,4.10
2023-05-17T15:11:22.127Z,6.30
2023-05-17T15:13:55.246Z,5.53
2023-05-17T15:16:28.007Z,3.92
2023-05-17T15:19:02.067Z,7.62
2023-05-17T15:21:35.221Z,4.30
2023-05-17T15:24:08.853Z,6.92
2023-05-17T15:26:43.256Z,6.00
2023-05-17T15:29:16.366Z,5.72
2023-05-17T15:31:49.378Z,6.75
2023-05-17T15:34:24.645Z,5.27
2023-05-17T15:36:58.686Z,6.67
2023-05-17T15:39:31.722Z,6.67
2023-05-17T15:42:04.967Z,6.47
2023-05-17T15:44:37.902Z,8.23
2023-05-17T15:47:10.946Z,7.15
2023-05-17T15:49:43.991Z,5.58
2023-05-17T15:52:16.900Z,6.10
2023-05-17T15:54:50.892Z,8.90
2023-05-17T15:57:23.814Z,6.90
2023-05-17T15:59:57.201Z,10.55
2023-05-17T16:02:30.518Z,7.28
2023-05-17T16:05:04.108Z,7.40
2023-05-17T16:07:37.590Z,7.03
2023-05-17T16:10:12.037Z,8.75
2023-05-17T16:12:45.125Z,7.05
2023-05-17T16:15:18.323Z,7.50
2023-05-17T16:17:53.819Z,7.25
2023-05-17T16:20:27.210Z,7.45
2023-05-17T16:23:00.280Z,7.10
2023-05-17T16:25:33.442Z,8.73
2023-05-17T16:28:06.364Z,9.70
2023-05-17T16:30:39.858Z,12.18
2023-05-17T16:33:14.722Z,10.75
2023-05-17T16:35:52.315Z,15.08
2023-05-17T16:38:25.821Z,12.85
2023-05-17T16:41:00.584Z,11.57
2023-05-17T16:43:33.713Z,8.73
2023-05-17T16:46:06.701Z,9.15
2023-05-17T16:48:39.824Z,10.33
2023-05-17T16:51:12.687Z,9.65
2023-05-17T16:53:45.698Z,8.20
2023-05-17T16:56:18.837Z,9.33
2023-05-17T16:58:53.050Z,9.78
2023-05-17T17:01:26.491Z,9.30
2023-05-17T17:03:59.808Z,10.75
2023-05-17T17:06:34.281Z,10.63
2023-05-17T17:09:08.480Z,8.40
2023-05-17T17:11:41.841Z,9.60
2023-05-17T17:14:15.262Z,9.93
2023-05-17T17:16:48.301Z,9.23
2023-05-17T17:19:22.140Z,13.40
2023-05-17T17:21:55.153Z,22.30
2023-05-17T17:24:28.444Z,17.92
2023-05-17T17:27:01.218Z,14.68
2023-05-17T17:29:34.524Z,12.30
2023-05-17T17:32:09.129Z,11.40
2023-05-17T17:34:42.114Z,9.50
2023-05-17T17:37:15.236Z,8.90
2023-05-17T17:39:48.091Z,8.95
2023-05-17T17:42:21.900Z,10.05
2023-05-17T17:44:55.675Z,9.68
2023-05-17T17:47:28.576Z,10.50
2023-05-17T17:50:01.314Z,9.90
2023-05-17T17:52:34.662Z,9.03
2023-05-17T17:55:10.931Z,8.15
2023-05-17T17:57:43.888Z,9.83
2023-05-17T18:00:17.075Z,8.38
2023-05-17T18:02:50.395Z,8.65
2023-05-17T18:05:25.308Z,8.33
2023-05-17T18:07:58.456Z,8.68
2023-05-17T18:10:31.885Z,9.43
2023-05-17T18:13:05.528Z,9.73
2023-05-17T18:15:38.712Z,11.22
2023-05-17T18:18:12.143Z,10.95
2023-05-17T18:20:45.194Z,10.13
2023-05-17T18:23:18.479Z,9.98
2023-05-17T18:25:52.131Z,11.85
2023-05-17T18:30:59.519Z,14.60
2023-05-17T18:33:34.374Z,10.30
2023-05-17T18:36:07.669Z,9.85
2023-05-17T18:38:41.585Z,12.30
2023-05-17T18:41:14.351Z,10.40
2023-05-17T18:43:47.123Z,10.65
2023-05-17T18:46:20.153Z,9.40
2023-05-17T18:48:52.981Z,10.93
2023-05-17T18:51:26.082Z,10.50
2023-05-17T18:53:58.911Z,10.35
2023-05-17T18:56:33.058Z,10.15
2023-05-17T19:01:38.595Z,10.40
2023-05-17T19:04:11.554Z,9.35
2023-05-17T19:06:44.885Z,10.23
2023-05-17T19:09:17.857Z,11.12
2023-05-17T19:11:50.719Z,11.20
2023-05-17T19:14:24.167Z,11.35
2023-05-17T19:16:57.213Z,11.50
2023-05-17T19:19:31.543Z,10.95
2023-05-17T19:22:05.739Z,9.65
2023-05-17T19:27:13.840Z,10.35
2023-05-17T19:29:49.972Z,10.63
2023-05-17T19:32:23.121Z,10.72
2023-05-17T19:34:56.036Z,11.20
2023-05-17T19:37:29.626Z,11.73
2023-05-17T19:40:02.422Z,10.98
2023-05-17T19:42:35.696Z,11.88
2023-05-17T19:45:11.436Z,11.50
2023-05-17T19:47:45.192Z,11.60
2023-05-17T19:50:18.034Z,12.03
2023-05-17T19:52:51.086Z,12.20
2023-05-17T19:55:25.264Z,12.28
2023-05-17T19:57:58.947Z,12.78
2023-05-17T20:00:33.937Z,12.47
2023-05-17T20:03:07.731Z,12.55
2023-05-17T20:05:41.063Z,12.58
2023-05-17T20:08:13.870Z,12.35
2023-05-17T20:10:46.733Z,12.68
2023-05-17T20:13:21.228Z,12.78
2023-05-17T20:15:54.564Z,13.10
2023-05-17T20:18:30.806Z,13.38
2023-05-17T20:21:03.652Z,12.35
2023-05-17T20:23:36.752Z,13.58
2023-05-17T20:26:11.182Z,13.15
2023-05-17T20:28:45.356Z,12.47
2023-05-17T20:31:18.427Z,13.08
2023-05-17T20:33:52.064Z,13.20
2023-05-17T20:36:26.118Z,14.07
2023-05-17T20:38:59.117Z,13.55
2023-05-17T20:41:32.111Z,14.65
2023-05-17T20:44:05.370Z,13.40
2023-05-17T20:46:38.904Z,15.05
2023-05-17T20:49:12.177Z,13.53
2023-05-17T20:51:45.165Z,14.87
2023-05-17T20:54:17.924Z,15.25
2023-05-17T20:56:50.782Z,14.40
2023-05-17T20:59:24.040Z,15.28
2023-05-17T21:01:56.878Z,15.40
2023-05-17T21:04:29.746Z,14.85
2023-05-17T21:07:02.826Z,15.08
2023-05-17T21:09:36.461Z,14.65
2023-05-17T21:12:09.551Z,15.78
2023-05-17T21:14:42.540Z,15.38
2023-05-17T21:17:15.986Z,14.83
2023-05-17T21:19:48.791Z,14.78
2023-05-17T21:22:21.674Z,15.20
2023-05-17T21:24:54.439Z,15.05
2023-05-17T21:27:27.762Z,15.55
2023-05-17T21:30:01.352Z,15.72
2023-05-17T21:32:34.341Z,15.63
2023-05-17T21:35:07.734Z,14.73
2023-05-17T21:37:42.181Z,14.40
2023-05-17T21:42:48.208Z,14.78
2023-05-17T21:45:22.143Z,15.28
2023-05-17T21:47:54.951Z,14.55
2023-05-17T21:50:28.394Z,14.60
2023-05-17T21:53:01.541Z,16.00
2023-05-17T21:55:40.897Z,15.90
2023-05-17T22:00:40.924Z,17.02
2023-05-17T22:03:13.962Z,19.12
2023-05-17T22:05:46.930Z,22.05
2023-05-17T22:08:19.815Z,25.23
2023-05-17T22:10:54.161Z,25.05
2023-05-17T22:13:29.351Z,26.00
2023-05-17T22:16:02.237Z,26.25
2023-05-17T22:18:36.023Z,24.47
2023-05-17T22:21:09.077Z,24.60
2023-05-17T22:23:42.665Z,25.12
2023-05-17T22:26:15.414Z,23.75
2023-05-17T22:28:48.485Z,25.25
2023-05-17T22:31:21.599Z,24.12
2023-05-17T22:33:54.435Z,22.80
2023-05-17T22:36:27.253Z,23.27
2023-05-17T22:39:01.150Z,22.77
2023-05-17T22:41:34.200Z,21.87
2023-05-17T22:44:07.204Z,22.48
2023-05-17T22:46:42.465Z,21.73
2023-05-17T22:49:17.359Z,21.65
2023-05-17T22:51:50.051Z,21.50
2023-05-17T22:54:22.876Z,21.30
2023-05-17T22:56:55.630Z,21.02
2023-05-17T22:59:28.881Z,20.80
2023-05-17T23:02:03.398Z,19.48
2023-05-17T23:04:38.152Z,19.30
2023-05-17T23:07:10.892Z,18.92
2023-05-17T23:09:43.875Z,18.15
2023-05-17T23:12:17.598Z,18.32
2023-05-17T23:14:50.340Z,16.52
2023-05-17T23:17:23.040Z,18.12
2023-05-17T23:19:56.079Z,18.75
2023-05-17T23:22:31.908Z,18.37
2023-05-17T23:25:06.356Z,18.25
2023-05-17T23:27:39.232Z,17.15
2023-05-17T23:30:12.743Z,17.20
2023-05-17T23:32:47.038Z,17.02
2023-05-17T23:37:52.488Z,17.23
2023-05-17T23:40:26.278Z,18.63
2023-05-17T23:42:59.047Z,18.07
2023-05-17T23:45:32.424Z,18.98
2023-05-17T23:48:05.560Z,16.37
2023-05-17T23:50:39.502Z,17.12
2023-05-17T23:53:12.250Z,17.40
2023-05-17T23:55:46.433Z,16.37
2023-05-17T23:58:19.181Z,17.80
